Time;durP1;ratioP1;P1;durP2;ratioP2;P2;SDS_P1;SDS_P2;PMS_P1;PMS_P2;Temp;Humidity;BMP_temperature;BMP_pressure;BME280_temperature;BME280_humidity;BME280_pressure;Samples;Min_cycle;Max_cycle;Signal;HPM_P1;HPM_P2
2022/08/02 00:01:00;;;;;;;4.75;2.90;;;;;;;23.99;49.05;100723.94;4164174;28;19928;-69
2022/08/02 00:03:04;;;;;;;5.45;2.83;;;;;;;24.01;49.17;100722.06;4165086;28;20042;-70
2022/08/02 00:05:08;;;;;;;6.32;3.75;;;;;;;24.04;49.26;100721.09;4165100;28;20049;-69
2022/08/02 00:07:11;;;;;;;5.18;2.83;;;;;;;23.90;49.54;100713.63;4163991;28;20038;-69
2022/08/02 00:09:15;;;;;;;7.20;3.03;;;;;;;23.96;49.41;100705.47;4164940;28;20043;-70
2022/08/02 00:11:17;;;;;;;8.40;3.37;;;;;;;23.92;49.48;100708.25;4157910;28;20043;-69
2022/08/02 00:13:20;;;;;;;3.65;2.78;;;;;;;23.90;49.87;100707.47;4164765;28;20041;-70
2022/08/02 00:15:23;;;;;;;4.95;2.92;;;;;;;23.86;49.57;100707.59;4165498;28;20056;-69
2022/08/02 00:17:27;;;;;;;6.55;2.90;;;;;;;23.84;49.76;100703.22;4165572;28;20136;-69
2022/08/02 00:19:31;;;;;;;8.95;2.88;;;;;;;23.87;49.80;100708.44;4164076;28;20037;-69
2022/08/02 00:21:34;;;;;;;4.45;3.10;;;;;;;23.86;49.79;100699.63;4196924;28;20068;-70
2022/08/02 00:23:37;;;;;;;4.10;2.70;;;;;;;23.82;50.04;100705.94;4167843;28;20046;-69
2022/08/02 00:26:00;;;;;;;6.68;3.40;;;;;;;23.77;50.10;100704.38;4165702;28;20307;-68
2022/08/02 00:28:02;;;;;;;3.42;2.42;;;;;;;23.70;50.47;100696.63;4178921;28;20029;-69
2022/08/02 00:30:06;;;;;;;4.50;3.10;;;;;;;23.68;50.53;100695.84;4166225;28;20037;-70
2022/08/02 00:32:09;;;;;;;6.82;3.30;;;;;;;23.74;50.40;100696.50;4164741;28;20048;-69
2022/08/02 00:34:13;;;;;;;5.75;2.90;;;;;;;23.68;50.54;100693.19;4164369;28;20083;-69
2022/08/02 00:36:34;;;;;;;5.40;2.58;;;;;;;23.66;50.67;100702.97;4163592;28;20030;-69
2022/08/02 00:38:36;;;;;;;;;;;;;;;23.54;50.95;100703.44;4181794;28;20052;-69
2022/08/02 00:40:40;;;;;;;5.15;2.80;;;;;;;23.57;50.98;100700.66;4165326;28;19928;-69
2022/08/02 00:42:44;;;;;;;4.10;2.97;;;;;;;23.57;51.11;100708.63;4162968;28;20507;-69
2022/08/02 00:44:47;;;;;;;3.92;3.17;;;;;;;23.57;51.27;100711.28;4165093;28;20406;-69
2022/08/02 00:46:50;;;;;;;7.22;3.03;;;;;;;23.64;50.86;100712.78;4147534;28;20041;-69
2022/08/02 00:48:54;;;;;;;4.47;2.70;;;;;;;23.60;51.25;100721.78;4163122;28;20124;-69
2022/08/02 00:50:57;;;;;;;4.85;3.03;;;;;;;23.57;51.23;100719.25;4165117;28;20107;-69
2022/08/02 00:53:02;;;;;;;4.60;2.80;;;;;;;23.61;51.18;100719.97;4171241;28;20033;-69
2022/08/02 00:55:06;;;;;;;5.78;2.60;;;;;;;23.60;51.21;100719.13;4167443;28;20041;-69
2022/08/02 00:57:09;;;;;;;3.60;2.67;;;;;;;23.59;50.98;100728.00;4165786;28;20037;-69
2022/08/02 00:59:11;;;;;;;4.75;3.08;;;;;;;23.43;51.79;100729.47;4165649;28;20046;-69
2022/08/02 01:01:17;;;;;;;3.08;2.50;;;;;;;23.55;51.44;100730.81;4163854;28;20042;-68
2022/08/02 01:03:20;;;;;;;4.03;2.33;;;;;;;23.42;51.87;100735.69;4162537;28;20037;-69
2022/08/02 01:05:23;;;;;;;7.80;3.00;;;;;;;23.43;51.95;100732.13;4163989;28;20034;-69
2022/08/02 01:07:26;;;;;;;3.67;2.45;;;;;;;23.35;52.17;100733.25;4164801;28;20030;-69
2022/08/02 01:09:31;;;;;;;3.10;2.20;;;;;;;23.37;52.48;100740.31;4164387;28;20042;-69
2022/08/02 01:11:35;;;;;;;3.53;3.00;;;;;;;23.39;52.74;100743.75;4163674;28;20250;-69
2022/08/02 01:13:38;;;;;;;4.80;2.45;;;;;;;23.31;52.54;100736.06;4164298;28;20026;-69
2022/08/02 01:15:48;;;;;;;3.97;2.72;;;;;;;23.31;52.67;100742.22;4163705;28;20052;-68
2022/08/02 01:18:01;;;;;;;5.70;2.85;;;;;;;23.34;52.63;100741.28;4163490;28;20044;-69
2022/08/02 01:20:12;;;;;;;3.00;2.70;;;;;;;23.23;52.97;100744.31;4163857;28;20038;-69
2022/08/02 01:22:38;;;;;;;4.90;2.97;;;;;;;23.23;53.38;100749.59;4161078;28;20531;-68
2022/08/02 01:25:28;;;;;;;6.75;3.05;;;;;;;23.21;53.37;100746.13;4163427;28;20495;-70
2022/08/02 01:27:43;;;;;;;5.32;3.00;;;;;;;23.23;53.31;100749.59;4154048;28;20099;-69
2022/08/02 01:29:53;;;;;;;4.47;2.88;;;;;;;23.16;53.49;100743.63;4164511;28;20041;-69
2022/08/02 01:32:03;;;;;;;5.05;2.92;;;;;;;23.16;53.28;100740.97;4163879;28;20099;-70
2022/08/02 01:34:14;;;;;;;5.80;3.03;;;;;;;23.15;53.60;100741.03;4164219;28;20467;-70
2022/08/02 01:36:19;;;;;;;5.05;3.13;;;;;;;22.99;53.74;100741.50;4156449;28;20042;-69
2022/08/02 01:38:26;;;;;;;3.00;2.70;;;;;;;23.02;53.75;100746.69;4164509;28;20042;-69
2022/08/02 01:40:34;;;;;;;3.97;2.67;;;;;;;22.95;53.88;100745.16;4161609;28;20518;-70
2022/08/02 01:42:40;;;;;;;2.83;2.53;;;;;;;22.90;54.09;100746.25;4161779;28;20814;-69
2022/08/02 01:44:45;;;;;;;4.80;2.88;;;;;;;22.91;53.98;100737.38;4165000;28;20052;-69
2022/08/02 01:46:51;;;;;;;4.32;2.88;;;;;;;22.93;54.08;100733.75;4164274;28;20033;-69
2022/08/02 01:48:57;;;;;;;4.50;2.72;;;;;;;22.93;54.11;100738.19;4163726;28;20087;-70
2022/08/02 01:51:03;;;;;;;3.22;2.40;;;;;;;22.83;54.31;100740.28;4162590;28;20095;-69
2022/08/02 01:53:09;;;;;;;5.10;2.63;;;;;;;22.82;54.51;100739.41;4163358;28;20431;-69
2022/08/02 01:55:16;;;;;;;3.15;2.80;;;;;;;22.78;54.87;100743.06;4194983;28;20063;-69
2022/08/02 01:57:22;;;;;;;4.55;2.78;;;;;;;22.81;55.04;100736.81;4157335;28;20025;-69
2022/08/02 01:59:27;;;;;;;6.28;2.90;;;;;;;22.83;54.58;100734.97;4164670;28;20103;-69
2022/08/02 02:01:32;;;;;;;4.40;2.78;;;;;;;22.82;54.65;100735.88;4164796;28;20498;-70
2022/08/02 02:03:39;;;;;;;3.95;2.42;;;;;;;22.81;54.51;100731.50;4163839;28;20084;-69
2022/08/02 02:05:46;;;;;;;3.47;2.38;;;;;;;22.72;54.69;100726.50;4164083;28;20535;-69
2022/08/02 02:07:53;;;;;;;4.70;2.50;;;;;;;22.72;54.71;100739.75;4162695;28;20045;-70
2022/08/02 02:09:58;;;;;;;3.95;2.70;;;;;;;22.72;54.86;100737.09;4161555;28;20037;-70
2022/08/02 02:12:03;;;;;;;3.35;2.50;;;;;;;22.71;54.61;100740.69;4162638;28;20407;-69
2022/08/02 02:14:17;;;;;;;3.00;2.70;;;;;;;22.74;54.77;100735.28;4164429;28;20039;-69
2022/08/02 02:16:22;;;;;;;3.95;2.80;;;;;;;22.69;54.79;100735.41;4157016;28;20053;-69
2022/08/02 02:18:27;;;;;;;7.68;2.65;;;;;;;22.70;54.97;100741.59;4162493;28;20454;-69
2022/08/02 02:20:32;;;;;;;2.97;2.20;;;;;;;22.70;55.00;100744.25;4163234;28;20035;-69
2022/08/02 02:22:35;;;;;;;4.72;2.85;;;;;;;22.73;54.85;100737.03;4162968;28;20045;-71
2022/08/02 02:24:38;;;;;;;4.47;2.90;;;;;;;22.66;54.94;100744.34;4157690;28;20049;-69
2022/08/02 02:26:43;;;;;;;4.22;2.90;;;;;;;22.63;55.10;100733.84;4159688;28;20140;-69
2022/08/02 02:28:56;;;;;;;4.45;2.90;;;;;;;22.60;55.11;100728.59;4163600;28;20388;-70
2022/08/02 02:31:03;;;;;;;6.20;2.80;;;;;;;22.59;55.26;100728.66;4162117;28;20139;-70
2022/08/02 02:33:08;;;;;;;3.45;2.30;;;;;;;22.60;55.27;100728.59;4162277;28;20033;-70
2022/08/02 02:35:13;;;;;;;4.00;2.40;;;;;;;22.56;55.44;100727.00;4162546;28;20247;-70
2022/08/02 02:37:21;;;;;;;4.07;2.80;;;;;;;22.59;55.58;100720.72;4163527;28;20120;-70
2022/08/02 02:39:27;;;;;;;6.45;2.45;;;;;;;22.53;55.65;100737.69;4163459;28;20048;-69
2022/08/02 02:41:30;;;;;;;4.57;2.78;;;;;;;22.52;55.63;100738.59;4160629;28;20068;-69
2022/08/02 02:43:35;;;;;;;4.20;2.85;;;;;;;22.46;55.68;100737.00;4144623;28;20046;-69
2022/08/02 02:45:39;;;;;;;2.75;2.33;;;;;;;22.42;55.88;100740.66;4162206;28;20041;-69
2022/08/02 02:47:42;;;;;;;3.53;2.60;;;;;;;22.38;56.20;100738.16;4161107;28;20037;-69
2022/08/02 02:49:47;;;;;;;3.95;2.60;;;;;;;22.38;56.14;100746.97;4160546;28;20207;-69
2022/08/02 02:51:51;;;;;;;3.25;2.40;;;;;;;22.40;56.10;100746.91;4162054;28;20056;-69
2022/08/02 02:53:56;;;;;;;3.72;2.30;;;;;;;22.38;56.22;100751.41;4163202;28;20043;-69
2022/08/02 02:56:20;;;;;;;3.33;2.38;;;;;;;22.31;56.22;100746.25;4165372;28;20140;-69
2022/08/02 02:58:24;;;;;;;2.42;2.20;;;;;;;22.34;56.05;100748.00;4164099;28;20045;-69
2022/08/02 03:02:51;;;;;;;4.25;2.28;;;;;;;22.31;56.21;100742.72;4162863;28;20052;-69
2022/08/02 03:05:00;;;;;;;6.50;3.13;;;;;;;22.41;55.85;100748.66;4160504;28;20029;-69
2022/08/02 03:07:03;;;;;;;2.80;2.50;;;;;;;22.38;55.94;100744.31;4163244;28;20111;-69
2022/08/02 03:09:09;;;;;;;4.00;2.70;;;;;;;22.34;55.91;100748.00;4159831;28;20500;-69
2022/08/02 03:11:13;;;;;;;4.88;2.75;;;;;;;22.37;56.00;100747.91;4162930;28;20080;-68
2022/08/02 03:13:18;;;;;;;5.68;2.35;;;;;;;22.45;55.70;100750.28;4154197;28;20041;-68
2022/08/02 03:15:21;;;;;;;4.68;2.78;;;;;;;22.55;55.38;100750.91;4163331;28;20045;-71
2022/08/02 03:17:24;;;;;;;3.40;2.83;;;;;;;22.43;55.71;100749.50;4161579;28;20376;-69
2022/08/02 03:19:27;;;;;;;5.25;2.90;;;;;;;22.46;55.78;100752.03;4163807;28;20473;-70
2022/08/02 03:21:35;;;;;;;5.85;3.00;;;;;;;22.34;56.00;100752.41;4162935;28;20045;-69
2022/08/02 03:23:38;;;;;;;4.30;2.47;;;;;;;22.29;56.07;100760.44;4161166;28;20073;-69
2022/08/02 03:25:42;;;;;;;4.63;2.90;;;;;;;22.25;56.27;100762.34;4165083;28;20045;-70
2022/08/02 03:27:46;;;;;;;6.35;3.03;;;;;;;22.17;56.38;100764.34;4165609;28;20095;-69
2022/08/02 03:29:48;;;;;;;3.45;3.05;;;;;;;22.12;56.61;100760.94;4166073;28;20124;-69
2022/08/02 03:31:52;;;;;;;4.57;2.85;;;;;;;22.10;56.85;100762.78;4165676;28;20592;-69
2022/08/02 03:33:56;;;;;;;3.78;2.92;;;;;;;22.12;56.94;100763.59;4166476;28;20132;-70
2022/08/02 03:36:05;;;;;;;6.55;3.20;;;;;;;22.08;56.69;100765.47;4164164;28;20041;-69
2022/08/02 03:38:09;;;;;;;4.97;3.22;;;;;;;22.11;56.71;100761.88;4166226;28;20491;-69
2022/08/02 03:40:13;;;;;;;4.63;3.40;;;;;;;22.08;56.89;100769.91;4163757;28;20037;-69
2022/08/02 03:42:18;;;;;;;4.85;2.83;;;;;;;22.02;57.09;100759.47;4165582;28;20479;-69
2022/08/02 03:44:23;;;;;;;9.65;3.80;;;;;;;22.06;57.00;100763.78;4166901;28;20103;-69
2022/08/02 03:46:26;;;;;;;5.07;3.30;;;;;;;22.02;57.18;100754.16;4165676;28;20041;-71
2022/08/02 03:48:30;;;;;;;4.53;3.75;;;;;;;22.07;57.14;100761.06;4163622;28;20037;-65
2022/08/02 03:50:37;;;;;;;6.20;3.38;;;;;;;22.27;56.61;100759.66;4165580;28;20045;-65
2022/08/02 03:52:42;;;;;;;3.65;2.95;;;;;;;22.21;56.80;100759.81;4164235;28;20044;-65
2022/08/02 03:54:45;;;;;;;5.70;2.83;;;;;;;22.15;56.85;100760.84;4167847;28;20042;-65
2022/08/02 03:56:48;;;;;;;4.22;2.85;;;;;;;22.20;56.89;100764.25;4165247;28;20049;-65
2022/08/02 03:59:05;;;;;;;6.40;3.42;;;;;;;22.40;56.42;100760.16;4165389;28;20037;-64
2022/08/02 04:01:08;;;;;;;7.55;2.40;;;;;;;22.28;56.45;100762.25;4164958;28;20561;-65
2022/08/02 04:03:11;;;;;;;7.10;3.70;;;;;;;22.34;56.51;100761.22;4164249;28;20044;-64
2022/08/02 04:05:21;;;;;;;7.22;3.53;;;;;;;22.34;56.40;100758.59;4156515;28;20037;-65
2022/08/02 04:07:24;;;;;;;9.30;3.70;;;;;;;22.34;56.32;100763.88;4159478;28;20033;-65
2022/08/02 04:09:47;;;;;;;5.68;3.33;;;;;;;22.29;56.53;100761.31;4171125;28;20041;-65
2022/08/02 04:11:49;;;;;;;4.80;3.20;;;;;;;22.27;56.64;100755.19;4160295;28;20042;-65
2022/08/02 04:13:53;;;;;;;4.72;3.40;;;;;;;22.33;56.59;100755.94;4162030;28;20406;-65
2022/08/02 04:16:09;;;;;;;6.13;2.90;;;;;;;22.38;56.27;100762.84;4163059;28;20152;-65
2022/08/02 04:18:13;;;;;;;4.78;2.97;;;;;;;22.29;56.36;100760.44;4198693;28;20532;-65
2022/08/02 04:20:19;;;;;;;8.15;3.47;;;;;;;22.30;56.93;100763.06;4154642;28;20192;-65
2022/08/02 04:22:25;;;;;;;6.25;3.03;;;;;;;22.29;56.47;100758.66;4162462;28;20029;-65
2022/08/02 04:24:34;;;;;;;5.38;3.17;;;;;;;22.25;56.47;100761.44;4156778;28;20049;-65
2022/08/02 04:26:38;;;;;;;6.18;3.05;;;;;;;22.23;56.83;100768.59;4165491;28;20052;-65
2022/08/02 04:28:44;;;;;;;3.75;2.83;;;;;;;22.32;56.34;100765.69;4165436;28;20041;-65
2022/08/02 04:30:50;;;;;;;3.83;3.00;;;;;;;22.22;56.50;100767.69;4162381;28;20042;-65
2022/08/02 04:32:54;;;;;;;4.57;2.92;;;;;;;22.26;56.56;100769.34;4164563;28;20043;-64
2022/08/02 04:34:57;;;;;;;4.90;3.05;;;;;;;22.22;56.60;100767.69;4163210;28;20484;-65
2022/08/02 04:37:21;;;;;;;6.55;3.30;;;;;;;22.26;56.56;100776.44;4164548;28;20041;-65
2022/08/02 04:39:24;;;;;;;5.57;3.00;;;;;;;22.27;56.41;100776.41;4163475;28;20049;-65
2022/08/02 04:41:40;;;;;;;5.43;3.28;;;;;;;22.27;56.63;100767.59;4163212;28;20041;-65
2022/08/02 04:43:46;;;;;;;3.40;2.30;;;;;;;22.19;56.65;100781.03;4162616;28;20153;-65
2022/08/02 04:45:53;;;;;;;4.57;2.92;;;;;;;22.28;56.20;100778.13;4160051;28;20033;-65
2022/08/02 04:47:56;;;;;;;5.90;3.15;;;;;;;22.19;56.77;100775.75;4164376;28;20042;-64
2022/08/02 04:50:08;;;;;;;6.32;2.85;;;;;;;22.20;56.68;100781.94;4165865;28;20092;-64
2022/08/02 04:52:11;;;;;;;11.00;2.90;;;;;;;22.25;56.87;100774.69;4161039;28;20045;-64
2022/08/02 04:54:15;;;;;;;5.53;3.35;;;;;;;22.33;56.65;100782.44;4165644;28;20450;-64
2022/08/02 04:56:18;;;;;;;10.35;3.65;;;;;;;22.31;56.80;100777.16;4151761;28;20052;-64
2022/08/02 04:58:20;;;;;;;6.35;3.38;;;;;;;22.31;56.70;100779.81;4163719;28;20079;-64
2022/08/02 05:00:42;;;;;;;7.07;3.42;;;;;;;22.29;57.01;100776.34;4163636;28;20038;-64
2022/08/02 05:02:47;;;;;;;6.03;3.10;;;;;;;22.40;56.63;100784.00;4162615;28;20041;-64
2022/08/02 05:04:50;;;;;;;5.97;3.53;;;;;;;22.42;56.68;100782.19;4157556;28;20116;-64
2022/08/02 05:06:53;;;;;;;5.97;2.67;;;;;;;22.37;56.38;100784.09;4163198;28;20037;-64
2022/08/02 05:08:56;;;;;;;14.20;3.60;;;;;;;22.49;56.21;100789.03;4163657;28;20373;-64
2022/08/02 05:10:59;;;;;;;5.82;3.30;;;;;;;22.56;55.85;100784.41;4165206;28;20120;-63
2022/08/02 05:13:04;;;;;;;5.88;3.38;;;;;;;22.53;55.98;100781.84;4146832;28;20133;-64
2022/08/02 05:15:09;;;;;;;6.10;3.58;;;;;;;22.50;56.02;100785.44;4163847;28;20049;-64
2022/08/02 05:17:14;;;;;;;6.93;3.28;;;;;;;22.40;56.55;100786.66;4163673;28;20045;-63
2022/08/02 05:19:19;;;;;;;5.90;3.22;;;;;;;22.39;56.53;100787.59;4164562;28;20033;-63
2022/08/02 05:21:21;;;;;;;8.73;3.95;;;;;;;22.39;56.22;100787.59;4164364;28;20059;-64
2022/08/02 05:23:24;;;;;;;7.82;3.95;;;;;;;22.38;56.38;100785.84;4161990;28;20037;-64
2022/08/02 05:25:27;;;;;;;6.55;3.42;;;;;;;22.33;56.62;100793.91;4163762;28;20037;-63
2022/08/02 05:27:31;;;;;;;6.50;3.72;;;;;;;22.44;56.08;100796.25;4163550;28;20042;-63
2022/08/02 05:29:34;;;;;;;5.85;3.38;;;;;;;22.48;56.01;100797.88;4166493;28;20052;-64
2022/08/02 05:31:37;;;;;;;6.75;3.95;;;;;;;22.42;56.35;100798.94;4150950;28;20041;-63
2022/08/02 05:33:40;;;;;;;6.20;3.60;;;;;;;22.43;56.26;100792.75;4162288;28;20128;-63
2022/08/02 05:35:45;;;;;;;10.98;4.93;;;;;;;22.47;56.24;100793.50;4164899;28;20033;-64
2022/08/02 05:37:51;;;;;;;15.15;4.15;;;;;;;22.41;56.34;100793.69;4163931;28;20041;-64
2022/08/02 05:39:54;;;;;;;10.73;3.92;;;;;;;22.41;56.27;100791.03;4161897;28;20041;-63
2022/08/02 05:41:58;;;;;;;6.10;3.35;;;;;;;22.35;56.53;100788.56;4164678;28;20040;-64
2022/08/02 05:44:01;;;;;;;7.78;4.18;;;;;;;22.49;56.29;100795.19;4163924;28;20515;-63
2022/08/02 05:46:04;;;;;;;9.52;3.97;;;;;;;22.46;56.45;100787.34;4160251;28;20120;-64
2022/08/02 05:48:07;;;;;;;7.30;3.92;;;;;;;22.42;56.20;100783.03;4161965;28;20060;-64
2022/08/02 05:50:10;;;;;;;15.80;5.13;;;;;;;22.52;56.10;100786.28;4164433;28;20175;-64
2022/08/02 05:52:17;;;;;;;10.88;3.67;;;;;;;22.53;56.13;100787.16;4162085;28;20048;-63
2022/08/02 05:54:26;;;;;;;11.23;4.03;;;;;;;22.47;56.18;100794.38;4172778;28;20037;-64
2022/08/02 05:56:34;;;;;;;13.65;4.88;;;;;;;22.53;56.09;100790.69;4162282;28;20047;-64
2022/08/02 05:58:56;;;;;;;6.30;3.42;;;;;;;22.47;56.27;100804.09;4160958;28;20042;-64
2022/08/02 06:01:02;;;;;;;11.90;4.13;;;;;;;22.57;56.31;100797.59;4155799;28;20333;-63
2022/08/02 06:03:19;;;;;;;13.48;5.45;;;;;;;22.69;55.66;100796.34;4160398;28;20577;-63
2022/08/02 06:05:22;;;;;;;19.30;4.65;;;;;;;22.65;55.88;100806.19;4152841;28;20041;-63
2022/08/02 06:07:26;;;;;;;11.70;5.00;;;;;;;22.73;55.67;100805.09;4158712;28;20037;-63
2022/08/02 06:09:30;;;;;;;;;;;;;;;22.70;55.74;100810.50;4145343;28;20033;-63
2022/08/02 06:11:37;;;;;;;12.32;4.68;;;;;;;22.79;55.25;100807.56;4175886;28;19928;-63
2022/08/02 06:13:41;;;;;;;12.38;4.20;;;;;;;22.79;55.55;100807.56;4161714;28;20490;-63
2022/08/02 06:15:44;;;;;;;10.20;4.10;;;;;;;22.75;55.68;100803.25;4162792;28;20526;-64
2022/08/02 06:17:57;;;;;;;9.05;4.55;;;;;;;22.93;55.56;100810.63;4160473;28;20037;-63
2022/08/02 06:20:00;;;;;;;;;;;;;;;22.96;55.17;100820.28;4162336;28;20041;-64
2022/08/02 06:22:14;;;;;;;10.07;4.28;;;;;;;23.10;54.86;100817.19;4160155;28;19921;-64
2022/08/02 06:24:39;;;;;;;8.88;4.50;;;;;;;23.20;54.25;100808.03;4158589;28;20060;-64
2022/08/02 06:26:43;;;;;;;8.60;3.92;;;;;;;23.02;54.64;100802.38;4157822;28;20049;-64
2022/08/02 06:28:48;;;;;;;12.82;4.60;;;;;;;23.11;54.57;100805.69;4176842;28;20040;-64
2022/08/02 06:30:51;;;;;;;9.65;4.22;;;;;;;23.07;54.76;100804.91;4162430;28;20120;-63
2022/08/02 06:32:55;;;;;;;10.60;3.80;;;;;;;23.13;54.95;100811.81;4159506;28;20049;-63
2022/08/02 06:34:57;;;;;;;14.32;4.32;;;;;;;23.20;54.93;100808.03;4162000;28;20029;-64
2022/08/02 06:37:09;;;;;;;8.70;3.80;;;;;;;23.24;54.80;100809.69;4161678;28;20049;-64
2022/08/02 06:39:26;;;;;;;9.20;4.57;;;;;;;23.39;53.96;100807.44;4192479;28;20044;-64
2022/08/02 06:41:36;;;;;;;9.00;3.55;;;;;;;23.25;54.02;100814.06;4190618;28;20058;-64
2022/08/02 06:43:46;;;;;;;6.47;3.97;;;;;;;23.22;54.06;100824.78;4160233;28;20049;-64
2022/08/02 06:45:49;;;;;;;6.82;3.67;;;;;;;23.08;54.60;100824.34;4159685;28;20051;-64
2022/08/02 06:47:53;;;;;;;7.82;3.47;;;;;;;23.04;54.72;100822.69;4192844;28;20099;-63
2022/08/02 06:49:57;;;;;;;10.20;3.88;;;;;;;23.05;54.95;100821.78;4167258;28;20040;-64
2022/08/02 06:52:00;;;;;;;5.03;2.83;;;;;;;23.12;54.80;100826.00;4156897;28;20636;-64
2022/08/02 06:54:03;;;;;;;10.77;3.92;;;;;;;23.33;53.87;100820.00;4154999;28;20041;-64
2022/08/02 06:56:06;;;;;;;7.28;4.05;;;;;;;23.39;53.43;100823.34;4161600;28;20499;-64
2022/08/02 06:58:12;;;;;;;8.57;3.65;;;;;;;23.21;54.27;100827.50;4162440;28;20048;-64
2022/08/02 07:00:15;;;;;;;8.93;3.72;;;;;;;23.14;54.81;100829.47;4163524;28;20100;-64
2022/08/02 07:02:19;;;;;;;9.50;4.20;;;;;;;23.15;54.13;100824.09;4164299;28;20045;-63
2022/08/02 07:04:22;;;;;;;5.78;3.53;;;;;;;23.14;54.35;100822.41;4160030;28;20040;-64
2022/08/02 07:06:25;;;;;;;7.60;3.78;;;;;;;23.28;53.83;100821.94;4160812;28;20495;-64
2022/08/02 07:08:31;;;;;;;10.30;3.70;;;;;;;23.32;54.11;100825.38;4160095;28;20112;-64
2022/08/02 07:10:34;;;;;;;5.53;3.65;;;;;;;23.40;53.60;100830.41;4158923;28;20376;-63
2022/08/02 07:12:37;;;;;;;8.05;3.63;;;;;;;23.52;53.62;100835.28;4160701;28;20038;-64
2022/08/02 07:14:41;;;;;;;8.35;3.53;;;;;;;23.61;53.33;100824.38;4160733;28;20033;-64
2022/08/02 07:16:44;;;;;;;7.55;3.05;;;;;;;23.77;52.83;100827.38;4162416;28;20446;-64
2022/08/02 07:18:46;;;;;;;9.90;3.50;;;;;;;23.79;53.02;100822.88;4159172;28;20472;-63
2022/08/02 07:20:49;;;;;;;7.60;3.13;;;;;;;23.72;52.83;100820.50;4158490;28;20535;-64
2022/08/02 07:22:52;;;;;;;6.35;3.30;;;;;;;23.86;52.45;100820.91;4160679;28;20511;-64
2022/08/02 07:24:56;;;;;;;6.50;3.25;;;;;;;23.88;52.08;100819.91;4161397;28;20128;-64
2022/08/02 07:26:59;;;;;;;5.85;3.40;;;;;;;24.05;51.59;100823.78;4162108;28;20041;-64
2022/08/02 07:29:13;;;;;;;11.27;3.05;;;;;;;24.02;52.03;100818.53;4160785;28;20041;-64
2022/08/02 07:31:18;;;;;;;6.22;3.60;;;;;;;24.08;51.60;100817.44;4159900;28;20030;-64
2022/08/02 07:33:21;;;;;;;3.95;2.60;;;;;;;24.03;51.63;100812.31;4160425;28;20034;-64
2022/08/02 07:35:41;;;;;;;6.25;3.67;;;;;;;24.20;51.07;100811.72;4157584;28;20041;-63
2022/08/02 07:37:48;;;;;;;5.72;3.08;;;;;;;24.22;50.65;100808.06;4155655;28;20060;-62
2022/08/02 07:40:00;;;;;;;7.90;3.17;;;;;;;24.19;51.12;100813.47;4157575;28;20030;-68
2022/08/02 07:42:07;;;;;;;9.25;3.28;;;;;;;24.32;50.32;100815.69;4173089;28;20037;-68
2022/08/02 07:44:10;;;;;;;5.90;2.55;;;;;;;24.36;49.15;100814.66;4157083;28;20060;-68
2022/08/02 07:46:13;;;;;;;4.00;2.88;;;;;;;24.45;49.36;100808.97;4159002;28;20041;-67
2022/08/02 07:48:19;;;;;;;9.05;3.45;;;;;;;24.48;49.82;100810.66;4160990;28;20049;-68
2022/08/02 07:50:23;;;;;;;6.78;2.90;;;;;;;24.48;49.47;100813.31;4160417;28;20052;-67
2022/08/02 07:52:26;;;;;;;4.97;2.40;;;;;;;24.41;49.71;100810.03;4190453;28;20040;-67
2022/08/02 07:54:28;;;;;;;4.80;2.47;;;;;;;24.59;49.25;100813.81;4158961;28;20034;-68
2022/08/02 07:56:31;;;;;;;3.20;2.25;;;;;;;24.54;49.33;100807.75;4158060;28;20041;-68
2022/08/02 07:58:34;;;;;;;3.85;2.60;;;;;;;24.58;49.65;100810.25;4161428;28;20049;-68
2022/08/02 08:00:38;;;;;;;5.17;2.60;;;;;;;24.78;49.26;100808.66;4158314;28;20041;-68
2022/08/02 08:02:41;;;;;;;5.55;2.20;;;;;;;24.88;47.37;100804.69;4159809;28;20068;-68
2022/08/02 08:04:45;;;;;;;4.85;1.73;;;;;;;24.91;44.89;100801.03;4161458;28;20033;-68
2022/08/02 08:06:50;;;;;;;6.07;1.83;;;;;;;24.96;42.89;100807.03;4160565;28;20091;-69
2022/08/02 08:08:54;;;;;;;3.78;2.10;;;;;;;24.91;43.76;100811.66;4161019;28;20399;-68
2022/08/02 08:10:57;;;;;;;5.03;2.20;;;;;;;24.84;45.40;100807.53;4160085;28;20126;-68
2022/08/02 08:13:00;;;;;;;4.15;2.00;;;;;;;24.93;45.64;100801.84;4164460;28;20124;-68
2022/08/02 08:15:04;;;;;;;3.42;1.50;;;;;;;25.16;42.07;100800.03;4164670;28;20491;-68
2022/08/02 08:17:07;;;;;;;4.75;1.40;;;;;;;25.19;39.99;100797.22;4162593;28;20040;-68
2022/08/02 08:19:10;;;;;;;4.03;1.55;;;;;;;25.14;41.59;100805.41;4156408;28;20038;-69
2022/08/02 08:21:14;;;;;;;2.83;1.83;;;;;;;25.17;42.49;100801.75;4161608;28;20417;-68
2022/08/02 08:23:17;;;;;;;3.08;1.83;;;;;;;25.25;42.84;100800.53;4165624;28;20049;-68
2022/08/02 08:25:20;;;;;;;2.67;1.85;;;;;;;25.30;42.41;100795.00;4162820;28;20518;-68
2022/08/02 08:27:24;;;;;;;3.28;1.77;;;;;;;25.44;41.41;100797.97;4159750;28;20095;-69
2022/08/02 08:29:27;;;;;;;2.05;1.42;;;;;;;25.34;42.32;100801.97;4161623;28;20084;-68
2022/08/02 08:31:30;;;;;;;2.65;1.77;;;;;;;25.31;42.46;100794.09;4161878;28;20070;-68
2022/08/02 08:33:33;;;;;;;3.65;1.65;;;;;;;25.44;42.78;100791.78;4162032;28;20506;-68
2022/08/02 08:35:36;;;;;;;3.03;1.90;;;;;;;25.62;42.68;100792.78;4158124;28;20499;-68
2022/08/02 08:37:40;;;;;;;5.65;2.00;;;;;;;25.61;42.50;100793.72;4163362;28;20037;-68
2022/08/02 08:39:43;;;;;;;;;;;;;;;25.67;41.65;100788.16;4163951;28;20069;-69
2022/08/02 08:42:01;;;;;;;2.38;1.80;;;;;;;25.79;40.13;100798.25;4162273;28;20282;-68
2022/08/02 08:44:04;;;;;;;2.30;1.77;;;;;;;25.63;40.77;100794.53;4162972;28;20033;-68
2022/08/02 08:46:10;;;;;;;2.08;1.15;;;;;;;25.74;41.06;100789.63;4146592;28;20038;-68
2022/08/02 08:48:15;;;;;;;5.68;1.33;;;;;;;25.86;39.87;100792.63;4160185;28;20038;-69
2022/08/02 08:50:36;;;;;;;1.73;1.30;;;;;;;25.89;38.82;100790.72;4158604;28;20554;-69
2022/08/02 08:52:46;;;;;;;2.90;1.27;;;;;;;25.98;38.72;100786.78;4163294;28;20056;-69
2022/08/02 08:54:51;;;;;;;1.75;1.23;;;;;;;25.98;39.32;100791.22;4195420;28;20044;-68
2022/08/02 08:56:54;;;;;;;;;;;;;;;26.03;38.46;100790.13;4163541;28;20048;-68
2022/08/02 08:58:57;;;;;;;1.40;1.20;;;;;;;25.89;38.77;100800.50;4164058;28;19921;-68
2022/08/02 09:01:00;;;;;;;2.10;1.42;;;;;;;26.04;38.35;100796.34;4160513;28;20084;-69
2022/08/02 09:03:04;;;;;;;3.63;1.55;;;;;;;26.29;37.63;100791.59;4162093;28;20590;-68
2022/08/02 09:05:10;;;;;;;5.60;1.40;;;;;;;26.30;37.58;100797.81;4179614;28;20052;-69
2022/08/02 09:07:13;;;;;;;2.78;1.30;;;;;;;26.16;38.46;100800.25;4160914;28;20045;-69
2022/08/02 09:09:19;;;;;;;;;;;;;;;26.23;38.54;100801.69;4161064;28;20045;-69
2022/08/02 09:11:24;;;;;;;2.50;1.20;;;;;;;26.35;37.13;100798.44;4194816;28;19930;-69
2022/08/02 09:13:29;;;;;;;3.47;1.35;;;;;;;26.41;37.76;100800.81;4163166;28;20037;-68
2022/08/02 09:15:53;;;;;;;1.73;1.05;;;;;;;26.45;38.20;100802.41;4162012;28;20129;-68
2022/08/02 09:17:56;;;;;;;4.53;1.38;;;;;;;26.61;38.07;100797.22;4163275;28;20042;-69
2022/08/02 09:20:09;;;;;;;2.70;1.65;;;;;;;26.74;37.67;100786.88;4158922;28;20045;-69
2022/08/02 09:22:13;;;;;;;1.65;1.15;;;;;;;26.75;37.23;100783.28;4158397;28;20041;-68
2022/08/02 09:24:20;;;;;;;3.75;1.63;;;;;;;26.88;37.53;100788.00;4193506;28;20045;-68
2022/08/02 09:26:23;;;;;;;4.45;1.42;;;;;;;26.86;37.37;100789.88;4171628;28;20495;-69
2022/08/02 09:28:28;;;;;;;1.45;0.98;;;;;;;26.87;36.38;100781.81;4192432;28;20052;-69
2022/08/02 09:30:30;;;;;;;;;;;;;;;26.90;36.99;100783.47;4144468;28;20046;-69
2022/08/02 09:32:44;;;;;;;2.08;1.40;;;;;;;27.05;35.78;100782.69;4157687;28;19979;-69
2022/08/02 09:34:50;;;;;;;2.65;1.10;;;;;;;27.09;36.08;100778.94;4168117;28;20056;-69
2022/08/02 09:36:53;;;;;;;5.13;1.40;;;;;;;27.30;35.66;100787.66;4160951;28;20040;-68
2022/08/02 09:39:00;;;;;;;2.15;1.20;;;;;;;27.31;34.99;100788.53;4157444;28;20130;-68
2022/08/02 09:41:05;;;;;;;1.48;1.27;;;;;;;27.20;36.19;100785.53;4160604;28;20042;-68
2022/08/02 09:43:09;;;;;;;1.58;1.10;;;;;;;27.14;36.23;100779.56;4164129;28;20510;-68
2022/08/02 09:45:12;;;;;;;1.85;1.20;;;;;;;27.24;36.54;100779.09;4163993;28;20037;-68
2022/08/02 09:47:16;;;;;;;4.25;1.60;;;;;;;27.42;35.48;100786.19;4189968;28;20167;-69
2022/08/02 09:49:19;;;;;;;;;;;;;;;27.41;35.58;100781.81;4169597;28;20078;-68